sensor_id;sensor_type;location;lat;lon;timestamp;P1;durP1;ratioP1;P2;durP2;ratioP2
64110;SDS011;50401;48.188;11.566;2023-02-12T00:01:20;84.63;;;32.95;;
64110;SDS011;50401;48.188;11.566;2023-02-12T00:03:48;83.55;;;31.92;;
64110;SDS011;50401;48.188;11.566;2023-02-12T00:06:13;87.45;;;32.28;;
64110;SDS011;50401;48.188;11.566;2023-02-12T00:08:39;97.28;;;32.25;;
64110;SDS011;50401;48.188;11.566;2023-02-12T00:11:09;82.57;;;31.92;;
64110;SDS011;50401;48.188;11.566;2023-02-12T00:13:34;90.68;;;32.58;;
64110;SDS011;50401;48.188;11.566;2023-02-12T00:16:03;84.03;;;30.70;;
64110;SDS011;50401;48.188;11.566;2023-02-12T00:18:32;101.47;;;33.97;;
64110;SDS011;50401;48.188;11.566;2023-02-12T00:20:58;83.30;;;33.10;;
64110;SDS011;50401;48.188;11.566;2023-02-12T00:23:24;75.28;;;31.30;;
64110;SDS011;50401;48.188;11.566;2023-02-12T00:25:50;95.90;;;32.58;;
64110;SDS011;50401;48.188;11.566;2023-02-12T00:28:15;77.57;;;32.78;;
64110;SDS011;50401;48.188;11.566;2023-02-12T00:30:40;76.03;;;31.00;;
64110;SDS011;50401;48.188;11.566;2023-02-12T00:33:06;86.53;;;33.42;;
64110;SDS011;50401;48.188;11.566;2023-02-12T00:35:31;87.90;;;33.35;;
64110;SDS011;50401;48.188;11.566;2023-02-12T00:37:56;88.05;;;34.20;;
64110;SDS011;50401;48.188;11.566;2023-02-12T00:40:22;89.15;;;32.88;;
64110;SDS011;50401;48.188;11.566;2023-02-12T00:42:47;90.70;;;33.33;;
64110;SDS011;50401;48.188;11.566;2023-02-12T00:45:12;90.38;;;34.25;;
64110;SDS011;50401;48.188;11.566;2023-02-12T00:47:38;90.53;;;33.47;;
64110;SDS011;50401;48.188;11.566;2023-02-12T00:50:03;84.43;;;32.05;;
64110;SDS011;50401;48.188;11.566;2023-02-12T00:52:29;77.38;;;31.75;;
64110;SDS011;50401;48.188;11.566;2023-02-12T00:54:54;84.18;;;32.30;;
64110;SDS011;50401;48.188;11.566;2023-02-12T00:57:20;79.30;;;31.35;;
64110;SDS011;50401;48.188;11.566;2023-02-12T00:59:45;80.65;;;32.65;;
64110;SDS011;50401;48.188;11.566;2023-02-12T01:02:11;77.65;;;31.60;;
64110;SDS011;50401;48.188;11.566;2023-02-12T01:04:37;73.93;;;31.65;;
64110;SDS011;50401;48.188;11.566;2023-02-12T01:07:02;83.82;;;32.83;;
64110;SDS011;50401;48.188;11.566;2023-02-12T01:09:28;91.85;;;35.45;;
64110;SDS011;50401;48.188;11.566;2023-02-12T01:11:53;86.30;;;32.78;;
64110;SDS011;50401;48.188;11.566;2023-02-12T01:14:18;78.55;;;31.70;;
64110;SDS011;50401;48.188;11.566;2023-02-12T01:16:44;79.75;;;32.20;;
64110;SDS011;50401;48.188;11.566;2023-02-12T01:19:10;77.43;;;30.52;;
64110;SDS011;50401;48.188;11.566;2023-02-12T01:21:36;84.05;;;33.60;;
64110;SDS011;50401;48.188;11.566;2023-02-12T01:24:01;83.20;;;32.45;;
64110;SDS011;50401;48.188;11.566;2023-02-12T01:26:28;81.68;;;31.83;;
64110;SDS011;50401;48.188;11.566;2023-02-12T01:28:56;82.78;;;31.65;;
64110;SDS011;50401;48.188;11.566;2023-02-12T01:31:24;92.90;;;33.90;;
64110;SDS011;50401;48.188;11.566;2023-02-12T01:33:52;88.28;;;32.72;;
64110;SDS011;50401;48.188;11.566;2023-02-12T01:36:19;86.55;;;32.58;;
64110;SDS011;50401;48.188;11.566;2023-02-12T01:38:44;82.47;;;32.45;;
64110;SDS011;50401;48.188;11.566;2023-02-12T01:41:11;82.53;;;33.30;;
64110;SDS011;50401;48.188;11.566;2023-02-12T01:43:39;81.60;;;33.60;;
64110;SDS011;50401;48.188;11.566;2023-02-12T01:46:05;81.60;;;32.90;;
64110;SDS011;50401;48.188;11.566;2023-02-12T01:48:34;87.47;;;33.90;;
64110;SDS011;50401;48.188;11.566;2023-02-12T01:51:10;87.57;;;34.17;;
64110;SDS011;50401;48.188;11.566;2023-02-12T01:53:43;76.80;;;31.10;;
64110;SDS011;50401;48.188;11.566;2023-02-12T01:56:12;79.13;;;32.20;;
64110;SDS011;50401;48.188;11.566;2023-02-12T01:58:39;81.55;;;31.90;;
64110;SDS011;50401;48.188;11.566;2023-02-12T02:01:06;89.50;;;34.60;;
64110;SDS011;50401;48.188;11.566;2023-02-12T02:03:35;77.45;;;32.63;;
64110;SDS011;50401;48.188;11.566;2023-02-12T02:06:05;83.70;;;32.80;;
64110;SDS011;50401;48.188;11.566;2023-02-12T02:08:40;76.18;;;32.70;;
64110;SDS011;50401;48.188;11.566;2023-02-12T02:11:06;109.30;;;38.17;;
64110;SDS011;50401;48.188;11.566;2023-02-12T02:13:52;109.40;;;40.20;;
64110;SDS011;50401;48.188;11.566;2023-02-12T02:16:37;95.30;;;37.90;;
64110;SDS011;50401;48.188;11.566;2023-02-12T02:19:18;90.93;;;34.67;;
64110;SDS011;50401;48.188;11.566;2023-02-12T02:27:40;82.97;;;31.95;;
64110;SDS011;50401;48.188;11.566;2023-02-12T02:36:05;80.07;;;32.05;;
64110;SDS011;50401;48.188;11.566;2023-02-12T02:39:02;78.85;;;31.58;;
64110;SDS011;50401;48.188;11.566;2023-02-12T02:41:32;78.88;;;31.40;;
64110;SDS011;50401;48.188;11.566;2023-02-12T02:44:04;76.20;;;30.60;;
64110;SDS011;50401;48.188;11.566;2023-02-12T02:46:39;77.95;;;31.92;;
64110;SDS011;50401;48.188;11.566;2023-02-12T02:49:13;83.32;;;32.38;;
64110;SDS011;50401;48.188;11.566;2023-02-12T02:51:45;79.97;;;31.98;;
64110;SDS011;50401;48.188;11.566;2023-02-12T02:54:22;71.35;;;30.40;;
64110;SDS011;50401;48.188;11.566;2023-02-12T02:56:52;85.05;;;33.17;;
64110;SDS011;50401;48.188;11.566;2023-02-12T02:59:23;84.13;;;32.45;;
64110;SDS011;50401;48.188;11.566;2023-02-12T03:04:24;89.80;;;34.35;;
64110;SDS011;50401;48.188;11.566;2023-02-12T03:07:07;73.10;;;33.00;;
64110;SDS011;50401;48.188;11.566;2023-02-12T03:12:05;82.38;;;33.78;;
64110;SDS011;50401;48.188;11.566;2023-02-12T03:14:41;76.00;;;32.22;;
64110;SDS011;50401;48.188;11.566;2023-02-12T03:17:15;77.82;;;31.15;;
64110;SDS011;50401;48.188;11.566;2023-02-12T03:19:50;88.53;;;32.75;;
64110;SDS011;50401;48.188;11.566;2023-02-12T03:22:20;85.18;;;32.08;;
64110;SDS011;50401;48.188;11.566;2023-02-12T03:27:37;83.57;;;32.30;;
64110;SDS011;50401;48.188;11.566;2023-02-12T03:30:06;86.53;;;31.92;;
64110;SDS011;50401;48.188;11.566;2023-02-12T03:32:35;76.47;;;31.65;;
64110;SDS011;50401;48.188;11.566;2023-02-12T03:35:25;80.78;;;30.60;;
64110;SDS011;50401;48.188;11.566;2023-02-12T03:40:41;79.20;;;32.13;;
64110;SDS011;50401;48.188;11.566;2023-02-12T03:46:12;73.57;;;31.23;;
64110;SDS011;50401;48.188;11.566;2023-02-12T03:48:45;73.95;;;33.15;;
64110;SDS011;50401;48.188;11.566;2023-02-12T03:54:09;77.10;;;31.38;;
64110;SDS011;50401;48.188;11.566;2023-02-12T03:56:41;86.90;;;29.85;;
64110;SDS011;50401;48.188;11.566;2023-02-12T03:59:20;82.30;;;31.65;;
64110;SDS011;50401;48.188;11.566;2023-02-12T04:01:47;87.90;;;32.53;;
64110;SDS011;50401;48.188;11.566;2023-02-12T04:04:15;72.50;;;32.03;;
64110;SDS011;50401;48.188;11.566;2023-02-12T04:06:41;81.80;;;32.13;;
64110;SDS011;50401;48.188;11.566;2023-02-12T04:09:08;81.20;;;33.20;;
64110;SDS011;50401;48.188;11.566;2023-02-12T04:17:17;77.75;;;31.98;;
64110;SDS011;50401;48.188;11.566;2023-02-12T04:25:35;107.05;;;34.08;;
64110;SDS011;50401;48.188;11.566;2023-02-12T04:28:24;90.50;;;33.72;;
64110;SDS011;50401;48.188;11.566;2023-02-12T04:33:40;88.60;;;33.40;;
64110;SDS011;50401;48.188;11.566;2023-02-12T04:36:15;82.35;;;33.03;;
64110;SDS011;50401;48.188;11.566;2023-02-12T04:38:49;75.03;;;31.33;;
64110;SDS011;50401;48.188;11.566;2023-02-12T04:41:17;79.60;;;32.35;;
64110;SDS011;50401;48.188;11.566;2023-02-12T04:43:43;83.88;;;32.67;;
64110;SDS011;50401;48.188;11.566;2023-02-12T04:46:09;77.80;;;30.75;;
64110;SDS011;50401;48.188;11.566;2023-02-12T04:48:35;85.18;;;34.00;;
64110;SDS011;50401;48.188;11.566;2023-02-12T04:51:05;89.82;;;33.50;;
64110;SDS011;50401;48.188;11.566;2023-02-12T04:53:30;86.32;;;32.35;;
64110;SDS011;50401;48.188;11.566;2023-02-12T04:55:56;80.68;;;33.53;;
64110;SDS011;50401;48.188;11.566;2023-02-12T04:58:21;79.07;;;31.52;;
64110;SDS011;50401;48.188;11.566;2023-02-12T05:00:46;86.55;;;33.88;;
64110;SDS011;50401;48.188;11.566;2023-02-12T05:03:12;75.72;;;31.58;;
64110;SDS011;50401;48.188;11.566;2023-02-12T05:05:37;92.68;;;32.28;;
64110;SDS011;50401;48.188;11.566;2023-02-12T05:08:02;84.45;;;33.03;;
64110;SDS011;50401;48.188;11.566;2023-02-12T05:10:28;94.38;;;34.50;;
64110;SDS011;50401;48.188;11.566;2023-02-12T05:12:53;79.20;;;33.58;;
64110;SDS011;50401;48.188;11.566;2023-02-12T05:15:19;85.45;;;33.33;;
64110;SDS011;50401;48.188;11.566;2023-02-12T05:17:46;78.50;;;32.78;;
64110;SDS011;50401;48.188;11.566;2023-02-12T05:20:11;85.60;;;33.35;;
64110;SDS011;50401;48.188;11.566;2023-02-12T05:22:37;79.22;;;31.65;;
64110;SDS011;50401;48.188;11.566;2023-02-12T05:25:03;88.80;;;34.92;;
64110;SDS011;50401;48.188;11.566;2023-02-12T05:27:29;80.95;;;33.47;;
64110;SDS011;50401;48.188;11.566;2023-02-12T05:29:55;88.57;;;33.47;;
64110;SDS011;50401;48.188;11.566;2023-02-12T05:32:21;89.75;;;35.63;;
64110;SDS011;50401;48.188;11.566;2023-02-12T05:34:46;91.38;;;34.25;;
64110;SDS011;50401;48.188;11.566;2023-02-12T05:37:12;90.55;;;34.33;;
64110;SDS011;50401;48.188;11.566;2023-02-12T05:39:37;90.53;;;34.40;;
64110;SDS011;50401;48.188;11.566;2023-02-12T05:42:02;88.65;;;33.53;;
64110;SDS011;50401;48.188;11.566;2023-02-12T05:44:28;90.43;;;34.92;;
64110;SDS011;50401;48.188;11.566;2023-02-12T05:46:53;100.22;;;37.28;;
64110;SDS011;50401;48.188;11.566;2023-02-12T05:49:18;87.50;;;32.72;;
64110;SDS011;50401;48.188;11.566;2023-02-12T05:51:44;97.78;;;35.28;;
64110;SDS011;50401;48.188;11.566;2023-02-12T05:54:09;98.40;;;35.70;;
64110;SDS011;50401;48.188;11.566;2023-02-12T05:56:36;95.22;;;36.25;;
64110;SDS011;50401;48.188;11.566;2023-02-12T05:59:07;103.53;;;36.95;;
64110;SDS011;50401;48.188;11.566;2023-02-12T06:01:37;96.75;;;34.55;;
64110;SDS011;50401;48.188;11.566;2023-02-12T06:04:05;91.80;;;36.63;;
64110;SDS011;50401;48.188;11.566;2023-02-12T06:06:32;110.20;;;38.88;;
64110;SDS011;50401;48.188;11.566;2023-02-12T06:08:59;96.38;;;36.65;;
64110;SDS011;50401;48.188;11.566;2023-02-12T06:11:25;122.78;;;38.78;;
64110;SDS011;50401;48.188;11.566;2023-02-12T06:13:50;97.97;;;36.70;;
64110;SDS011;50401;48.188;11.566;2023-02-12T06:16:17;113.22;;;36.65;;
64110;SDS011;50401;48.188;11.566;2023-02-12T06:18:43;97.43;;;36.63;;
64110;SDS011;50401;48.188;11.566;2023-02-12T06:21:08;90.88;;;35.90;;
64110;SDS011;50401;48.188;11.566;2023-02-12T06:23:33;100.63;;;36.20;;
64110;SDS011;50401;48.188;11.566;2023-02-12T06:25:58;100.45;;;38.40;;
64110;SDS011;50401;48.188;11.566;2023-02-12T06:28:24;94.07;;;38.35;;
64110;SDS011;50401;48.188;11.566;2023-02-12T06:30:49;94.65;;;39.10;;
64110;SDS011;50401;48.188;11.566;2023-02-12T06:33:15;111.57;;;39.33;;
64110;SDS011;50401;48.188;11.566;2023-02-12T06:35:40;102.95;;;38.40;;
64110;SDS011;50401;48.188;11.566;2023-02-12T06:38:05;106.95;;;39.88;;
64110;SDS011;50401;48.188;11.566;2023-02-12T06:40:31;100.05;;;39.40;;
64110;SDS011;50401;48.188;11.566;2023-02-12T06:42:56;103.50;;;39.50;;
64110;SDS011;50401;48.188;11.566;2023-02-12T06:45:22;107.10;;;40.35;;
64110;SDS011;50401;48.188;11.566;2023-02-12T06:47:47;107.15;;;40.22;;
64110;SDS011;50401;48.188;11.566;2023-02-12T06:50:12;108.68;;;39.70;;
64110;SDS011;50401;48.188;11.566;2023-02-12T06:52:38;97.35;;;39.22;;
64110;SDS011;50401;48.188;11.566;2023-02-12T06:55:03;108.85;;;40.00;;
64110;SDS011;50401;48.188;11.566;2023-02-12T06:57:29;110.38;;;41.35;;
64110;SDS011;50401;48.188;11.566;2023-02-12T06:59:54;103.05;;;39.38;;
64110;SDS011;50401;48.188;11.566;2023-02-12T07:02:20;110.88;;;41.28;;
64110;SDS011;50401;48.188;11.566;2023-02-12T07:04:45;118.65;;;43.20;;
64110;SDS011;50401;48.188;11.566;2023-02-12T07:07:11;129.57;;;42.75;;
64110;SDS011;50401;48.188;11.566;2023-02-12T07:09:36;115.70;;;42.65;;
64110;SDS011;50401;48.188;11.566;2023-02-12T07:12:02;139.00;;;50.17;;
64110;SDS011;50401;48.188;11.566;2023-02-12T07:14:28;143.05;;;46.88;;
64110;SDS011;50401;48.188;11.566;2023-02-12T07:16:53;124.13;;;44.92;;
64110;SDS011;50401;48.188;11.566;2023-02-12T07:19:19;112.47;;;41.83;;
64110;SDS011;50401;48.188;11.566;2023-02-12T07:21:45;122.38;;;43.53;;
64110;SDS011;50401;48.188;11.566;2023-02-12T07:24:10;141.55;;;46.08;;
64110;SDS011;50401;48.188;11.566;2023-02-12T07:26:37;132.85;;;45.60;;
64110;SDS011;50401;48.188;11.566;2023-02-12T07:29:02;129.98;;;45.38;;
64110;SDS011;50401;48.188;11.566;2023-02-12T07:31:28;131.15;;;46.83;;
64110;SDS011;50401;48.188;11.566;2023-02-12T07:33:54;130.23;;;45.13;;
64110;SDS011;50401;48.188;11.566;2023-02-12T07:36:21;129.93;;;46.33;;
64110;SDS011;50401;48.188;11.566;2023-02-12T07:38:47;131.13;;;42.83;;
64110;SDS011;50401;48.188;11.566;2023-02-12T07:41:13;129.88;;;44.90;;
64110;SDS011;50401;48.188;11.566;2023-02-12T07:43:41;131.93;;;46.70;;
64110;SDS011;50401;48.188;11.566;2023-02-12T07:46:09;137.27;;;45.33;;
64110;SDS011;50401;48.188;11.566;2023-02-12T07:48:36;144.95;;;46.78;;
64110;SDS011;50401;48.188;11.566;2023-02-12T07:51:02;133.35;;;45.50;;
64110;SDS011;50401;48.188;11.566;2023-02-12T07:53:29;142.02;;;46.67;;
64110;SDS011;50401;48.188;11.566;2023-02-12T07:55:54;126.97;;;43.63;;
64110;SDS011;50401;48.188;11.566;2023-02-12T07:58:20;134.30;;;47.25;;
64110;SDS011;50401;48.188;11.566;2023-02-12T08:00:45;135.48;;;45.00;;
64110;SDS011;50401;48.188;11.566;2023-02-12T08:03:10;152.45;;;51.95;;
64110;SDS011;50401;48.188;11.566;2023-02-12T08:05:36;144.57;;;49.40;;
64110;SDS011;50401;48.188;11.566;2023-02-12T08:08:01;115.15;;;42.67;;
64110;SDS011;50401;48.188;11.566;2023-02-12T08:10:26;108.10;;;37.72;;
64110;SDS011;50401;48.188;11.566;2023-02-12T08:12:52;123.10;;;40.90;;
64110;SDS011;50401;48.188;11.566;2023-02-12T08:15:17;137.25;;;43.80;;
64110;SDS011;50401;48.188;11.566;2023-02-12T08:17:42;123.00;;;40.53;;
64110;SDS011;50401;48.188;11.566;2023-02-12T08:20:08;120.90;;;39.17;;
64110;SDS011;50401;48.188;11.566;2023-02-12T08:22:33;115.65;;;42.35;;
64110;SDS011;50401;48.188;11.566;2023-02-12T08:24:58;122.03;;;40.83;;
64110;SDS011;50401;48.188;11.566;2023-02-12T08:27:24;117.88;;;40.47;;
64110;SDS011;50401;48.188;11.566;2023-02-12T08:29:49;107.47;;;37.10;;
64110;SDS011;50401;48.188;11.566;2023-02-12T08:32:14;116.28;;;38.78;;
64110;SDS011;50401;48.188;11.566;2023-02-12T08:34:41;95.78;;;34.50;;
64110;SDS011;50401;48.188;11.566;2023-02-12T08:37:06;101.38;;;36.13;;
64110;SDS011;50401;48.188;11.566;2023-02-12T08:39:32;107.85;;;36.47;;
64110;SDS011;50401;48.188;11.566;2023-02-12T08:41:58;91.35;;;34.42;;
64110;SDS011;50401;48.188;11.566;2023-02-12T08:44:24;93.93;;;32.38;;
64110;SDS011;50401;48.188;11.566;2023-02-12T08:46:50;86.18;;;32.15;;
64110;SDS011;50401;48.188;11.566;2023-02-12T08:49:18;86.65;;;32.10;;
64110;SDS011;50401;48.188;11.566;2023-02-12T08:51:52;89.07;;;32.90;;
64110;SDS011;50401;48.188;11.566;2023-02-12T08:54:23;93.68;;;33.30;;
64110;SDS011;50401;48.188;11.566;2023-02-12T08:56:53;92.28;;;33.35;;
64110;SDS011;50401;48.188;11.566;2023-02-12T08:59:20;91.30;;;33.28;;
64110;SDS011;50401;48.188;11.566;2023-02-12T09:01:48;88.78;;;30.60;;
64110;SDS011;50401;48.188;11.566;2023-02-12T09:04:16;75.60;;;29.48;;
64110;SDS011;50401;48.188;11.566;2023-02-12T09:06:47;89.50;;;30.70;;
64110;SDS011;50401;48.188;11.566;2023-02-12T09:09:13;77.97;;;28.02;;
64110;SDS011;50401;48.188;11.566;2023-02-12T09:11:39;66.72;;;27.23;;
64110;SDS011;50401;48.188;11.566;2023-02-12T09:14:06;76.15;;;28.08;;
64110;SDS011;50401;48.188;11.566;2023-02-12T09:19:00;79.15;;;28.38;;
64110;SDS011;50401;48.188;11.566;2023-02-12T09:21:26;72.50;;;28.98;;
64110;SDS011;50401;48.188;11.566;2023-02-12T09:23:51;68.00;;;28.08;;
64110;SDS011;50401;48.188;11.566;2023-02-12T09:26:18;74.75;;;30.40;;
64110;SDS011;50401;48.188;11.566;2023-02-12T09:28:49;75.43;;;30.33;;
64110;SDS011;50401;48.188;11.566;2023-02-12T09:31:25;89.95;;;33.60;;
64110;SDS011;50401;48.188;11.566;2023-02-12T09:33:53;91.28;;;36.00;;
64110;SDS011;50401;48.188;11.566;2023-02-12T09:36:21;84.72;;;33.50;;
64110;SDS011;50401;48.188;11.566;2023-02-12T09:38:47;81.80;;;31.48;;
64110;SDS011;50401;48.188;11.566;2023-02-12T09:41:27;83.13;;;31.80;;
64110;SDS011;50401;48.188;11.566;2023-02-12T09:44:14;84.25;;;32.25;;
64110;SDS011;50401;48.188;11.566;2023-02-12T09:46:52;66.60;;;27.20;;
64110;SDS011;50401;48.188;11.566;2023-02-12T09:52:19;66.88;;;27.52;;
64110;SDS011;50401;48.188;11.566;2023-02-12T09:54:49;66.90;;;25.30;;
64110;SDS011;50401;48.188;11.566;2023-02-12T09:57:19;59.72;;;24.70;;
64110;SDS011;50401;48.188;11.566;2023-02-12T09:59:53;39.35;;;16.73;;
64110;SDS011;50401;48.188;11.566;2023-02-12T10:02:42;21.20;;;7.13;;
64110;SDS011;50401;48.188;11.566;2023-02-12T10:05:15;8.32;;;3.58;;
64110;SDS011;50401;48.188;11.566;2023-02-12T10:13:17;13.85;;;5.03;;
64110;SDS011;50401;48.188;11.566;2023-02-12T10:21:23;14.75;;;5.88;;
64110;SDS011;50401;48.188;11.566;2023-02-12T10:26:49;20.85;;;8.70;;
64110;SDS011;50401;48.188;11.566;2023-02-12T10:29:26;26.40;;;10.00;;
64110;SDS011;50401;48.188;11.566;2023-02-12T10:31:58;25.60;;;9.90;;
64110;SDS011;50401;48.188;11.566;2023-02-12T10:34:32;26.27;;;10.55;;
64110;SDS011;50401;48.188;11.566;2023-02-12T10:37:46;25.55;;;10.82;;
64110;SDS011;50401;48.188;11.566;2023-02-12T10:40:05;18.25;;;9.10;;
64110;SDS011;50401;48.188;11.566;2023-02-12T10:42:39;17.05;;;6.55;;
64110;SDS011;50401;48.188;11.566;2023-02-12T10:45:11;15.05;;;5.40;;
64110;SDS011;50401;48.188;11.566;2023-02-12T10:47:42;15.38;;;4.95;;
64110;SDS011;50401;48.188;11.566;2023-02-12T10:50:15;12.90;;;4.70;;
64110;SDS011;50401;48.188;11.566;2023-02-12T10:52:47;11.57;;;3.03;;
64110;SDS011;50401;48.188;11.566;2023-02-12T10:55:28;12.43;;;2.15;;
64110;SDS011;50401;48.188;11.566;2023-02-12T10:57:56;8.90;;;1.73;;
64110;SDS011;50401;48.188;11.566;2023-02-12T11:00:24;14.13;;;1.80;;
64110;SDS011;50401;48.188;11.566;2023-02-12T11:06:07;4.27;;;2.50;;
64110;SDS011;50401;48.188;11.566;2023-02-12T11:08:36;8.85;;;2.08;;
64110;SDS011;50401;48.188;11.566;2023-02-12T11:13:52;20.08;;;2.97;;
64110;SDS011;50401;48.188;11.566;2023-02-12T11:16:27;23.92;;;2.35;;
64110;SDS011;50401;48.188;11.566;2023-02-12T11:18:57;7.18;;;1.60;;
64110;SDS011;50401;48.188;11.566;2023-02-12T11:21:25;5.97;;;1.92;;
64110;SDS011;50401;48.188;11.566;2023-02-12T11:23:50;9.55;;;1.75;;
64110;SDS011;50401;48.188;11.566;2023-02-12T11:28:57;3.38;;;1.58;;
64110;SDS011;50401;48.188;11.566;2023-02-12T11:31:27;15.23;;;2.95;;
64110;SDS011;50401;48.188;11.566;2023-02-12T11:34:16;8.15;;;2.50;;
64110;SDS011;50401;48.188;11.566;2023-02-12T11:36:44;18.33;;;2.80;;
64110;SDS011;50401;48.188;11.566;2023-02-12T11:39:19;11.82;;;2.17;;
64110;SDS011;50401;48.188;11.566;2023-02-12T11:41:57;4.95;;;1.85;;
64110;SDS011;50401;48.188;11.566;2023-02-12T11:47:01;6.18;;;2.30;;
64110;SDS011;50401;48.188;11.566;2023-02-12T11:49:51;6.03;;;2.47;;
64110;SDS011;50401;48.188;11.566;2023-02-12T11:52:26;4.70;;;2.47;;
64110;SDS011;50401;48.188;11.566;2023-02-12T11:54:58;4.20;;;2.28;;
64110;SDS011;50401;48.188;11.566;2023-02-12T12:02:47;9.93;;;2.47;;
64110;SDS011;50401;48.188;11.566;2023-02-12T12:05:18;11.13;;;3.03;;
64110;SDS011;50401;48.188;11.566;2023-02-12T12:07:52;15.45;;;2.75;;
64110;SDS011;50401;48.188;11.566;2023-02-12T12:10:39;4.82;;;2.78;;
64110;SDS011;50401;48.188;11.566;2023-02-12T12:13:15;17.88;;;3.35;;
64110;SDS011;50401;48.188;11.566;2023-02-12T12:15:47;19.33;;;3.97;;
64110;SDS011;50401;48.188;11.566;2023-02-12T12:18:46;17.20;;;4.47;;
64110;SDS011;50401;48.188;11.566;2023-02-12T12:21:36;7.82;;;4.25;;
64110;SDS011;50401;48.188;11.566;2023-02-12T12:27:02;13.35;;;5.95;;
64110;SDS011;50401;48.188;11.566;2023-02-12T12:29:45;11.25;;;5.13;;
64110;SDS011;50401;48.188;11.566;2023-02-12T12:32:16;12.00;;;5.65;;
64110;SDS011;50401;48.188;11.566;2023-02-12T12:34:45;21.90;;;6.35;;
64110;SDS011;50401;48.188;11.566;2023-02-12T12:37:20;23.38;;;8.20;;
64110;SDS011;50401;48.188;11.566;2023-02-12T12:53:58;17.15;;;7.47;;
64110;SDS011;50401;48.188;11.566;2023-02-12T13:15:32;13.23;;;6.25;;
64110;SDS011;50401;48.188;11.566;2023-02-12T13:26:21;11.38;;;5.30;;
64110;SDS011;50401;48.188;11.566;2023-02-12T13:28:57;13.77;;;5.32;;
64110;SDS011;50401;48.188;11.566;2023-02-12T13:31:30;9.38;;;5.70;;
64110;SDS011;50401;48.188;11.566;2023-02-12T13:34:04;22.65;;;8.00;;
64110;SDS011;50401;48.188;11.566;2023-02-12T13:36:35;11.23;;;5.88;;
64110;SDS011;50401;48.188;11.566;2023-02-12T13:41:37;14.13;;;6.47;;
64110;SDS011;50401;48.188;11.566;2023-02-12T13:46:50;14.00;;;6.32;;
64110;SDS011;50401;48.188;11.566;2023-02-12T13:55:08;13.80;;;6.72;;
64110;SDS011;50401;48.188;11.566;2023-02-12T13:57:45;18.23;;;7.43;;
64110;SDS011;50401;48.188;11.566;2023-02-12T14:03:11;15.13;;;6.47;;
64110;SDS011;50401;48.188;11.566;2023-02-12T14:05:37;19.90;;;9.00;;
64110;SDS011;50401;48.188;11.566;2023-02-12T14:08:04;17.13;;;7.57;;
64110;SDS011;50401;48.188;11.566;2023-02-12T14:10:34;14.07;;;6.43;;
64110;SDS011;50401;48.188;11.566;2023-02-12T14:15:43;21.77;;;10.35;;
64110;SDS011;50401;48.188;11.566;2023-02-12T14:18:21;29.23;;;12.93;;
64110;SDS011;50401;48.188;11.566;2023-02-12T14:23:38;23.63;;;10.50;;
64110;SDS011;50401;48.188;11.566;2023-02-12T14:26:16;25.27;;;10.77;;
64110;SDS011;50401;48.188;11.566;2023-02-12T14:33:45;16.75;;;7.68;;
64110;SDS011;50401;48.188;11.566;2023-02-12T14:38:57;14.02;;;6.03;;
64110;SDS011;50401;48.188;11.566;2023-02-12T14:41:50;24.75;;;9.27;;
64110;SDS011;50401;48.188;11.566;2023-02-12T14:46:50;19.73;;;8.80;;
64110;SDS011;50401;48.188;11.566;2023-02-12T14:52:42;18.88;;;8.75;;
64110;SDS011;50401;48.188;11.566;2023-02-12T14:55:17;16.35;;;7.43;;
64110;SDS011;50401;48.188;11.566;2023-02-12T14:57:47;15.32;;;7.32;;
64110;SDS011;50401;48.188;11.566;2023-02-12T15:02:41;15.88;;;7.72;;
64110;SDS011;50401;48.188;11.566;2023-02-12T15:05:15;17.70;;;8.38;;
64110;SDS011;50401;48.188;11.566;2023-02-12T15:07:54;22.85;;;9.27;;
64110;SDS011;50401;48.188;11.566;2023-02-12T15:10:26;17.27;;;7.88;;
64110;SDS011;50401;48.188;11.566;2023-02-12T15:13:00;19.10;;;8.23;;
64110;SDS011;50401;48.188;11.566;2023-02-12T15:21:03;17.50;;;6.95;;
64110;SDS011;50401;48.188;11.566;2023-02-12T15:24:02;23.65;;;9.27;;
64110;SDS011;50401;48.188;11.566;2023-02-12T15:29:15;25.92;;;11.38;;
64110;SDS011;50401;48.188;11.566;2023-02-12T15:31:48;22.70;;;10.90;;
64110;SDS011;50401;48.188;11.566;2023-02-12T15:34:16;24.40;;;11.65;;
64110;SDS011;50401;48.188;11.566;2023-02-12T15:36:46;27.10;;;12.13;;
64110;SDS011;50401;48.188;11.566;2023-02-12T15:39:17;25.88;;;11.10;;
64110;SDS011;50401;48.188;11.566;2023-02-12T15:41:45;29.60;;;11.32;;
64110;SDS011;50401;48.188;11.566;2023-02-12T15:46:53;28.77;;;12.60;;
64110;SDS011;50401;48.188;11.566;2023-02-12T15:49:19;27.20;;;12.32;;
64110;SDS011;50401;48.188;11.566;2023-02-12T15:51:46;33.72;;;12.43;;
64110;SDS011;50401;48.188;11.566;2023-02-12T15:54:12;32.58;;;13.43;;
64110;SDS011;50401;48.188;11.566;2023-02-12T15:56:43;33.72;;;14.32;;
64110;SDS011;50401;48.188;11.566;2023-02-12T15:59:14;33.00;;;13.38;;
64110;SDS011;50401;48.188;11.566;2023-02-12T16:01:55;32.38;;;14.15;;
64110;SDS011;50401;48.188;11.566;2023-02-12T16:04:28;32.42;;;13.45;;
64110;SDS011;50401;48.188;11.566;2023-02-12T16:06:55;36.75;;;14.23;;
64110;SDS011;50401;48.188;11.566;2023-02-12T16:09:25;34.67;;;14.73;;
64110;SDS011;50401;48.188;11.566;2023-02-12T16:11:56;37.67;;;15.10;;
64110;SDS011;50401;48.188;11.566;2023-02-12T16:14:25;32.08;;;14.88;;
64110;SDS011;50401;48.188;11.566;2023-02-12T16:16:55;38.55;;;15.65;;
64110;SDS011;50401;48.188;11.566;2023-02-12T16:19:32;36.55;;;15.82;;
64110;SDS011;50401;48.188;11.566;2023-02-12T16:24:33;40.40;;;17.87;;
64110;SDS011;50401;48.188;11.566;2023-02-12T16:27:34;40.00;;;16.27;;
64110;SDS011;50401;48.188;11.566;2023-02-12T16:29:59;47.03;;;18.45;;
64110;SDS011;50401;48.188;11.566;2023-02-12T16:35:17;42.70;;;17.08;;
64110;SDS011;50401;48.188;11.566;2023-02-12T16:37:52;50.72;;;20.23;;
64110;SDS011;50401;48.188;11.566;2023-02-12T16:40:24;48.78;;;19.75;;
64110;SDS011;50401;48.188;11.566;2023-02-12T16:42:55;46.67;;;18.45;;
64110;SDS011;50401;48.188;11.566;2023-02-12T16:47:59;46.78;;;19.20;;
64110;SDS011;50401;48.188;11.566;2023-02-12T16:50:33;47.83;;;18.92;;
64110;SDS011;50401;48.188;11.566;2023-02-12T16:53:01;46.60;;;18.63;;
64110;SDS011;50401;48.188;11.566;2023-02-12T16:55:48;51.67;;;21.05;;
64110;SDS011;50401;48.188;11.566;2023-02-12T16:58:14;51.20;;;20.08;;
64110;SDS011;50401;48.188;11.566;2023-02-12T17:00:40;49.63;;;19.30;;
64110;SDS011;50401;48.188;11.566;2023-02-12T17:03:08;53.45;;;19.45;;
64110;SDS011;50401;48.188;11.566;2023-02-12T17:05:36;53.15;;;20.75;;
64110;SDS011;50401;48.188;11.566;2023-02-12T17:08:01;54.15;;;20.42;;
64110;SDS011;50401;48.188;11.566;2023-02-12T17:10:26;57.55;;;21.17;;
64110;SDS011;50401;48.188;11.566;2023-02-12T17:12:52;52.08;;;20.98;;
64110;SDS011;50401;48.188;11.566;2023-02-12T17:15:24;54.22;;;20.67;;
64110;SDS011;50401;48.188;11.566;2023-02-12T17:17:54;52.70;;;21.23;;
64110;SDS011;50401;48.188;11.566;2023-02-12T17:20:20;51.83;;;20.23;;
64110;SDS011;50401;48.188;11.566;2023-02-12T17:22:49;59.45;;;21.90;;